Time;durP1;ratioP1;P1;durP2;ratioP2;P2;SDS_P1;SDS_P2;PMS_P1;PMS_P2;Temp;Humidity;BMP_temperature;BMP_pressure;BME280_temperature;BME280_humidity;BME280_pressure;Samples;Min_cycle;Max_cycle;Signal;HPM_P1;HPM_P2
2022/07/09 00:01:06;;;;;;;4.97;2.85;;;21.60;58.60;;;;;;4941570;28;20042;-76
2022/07/09 00:03:32;;;;;;;3.78;2.35;;;21.60;58.70;;;;;;4925624;28;20023;-75
2022/07/09 00:05:57;;;;;;;4.30;2.90;;;21.50;58.50;;;;;;4942720;28;20503;-75
2022/07/09 00:08:23;;;;;;;3.90;2.80;;;21.50;58.70;;;;;;4943123;28;20032;-76
2022/07/09 00:10:49;;;;;;;4.53;2.70;;;21.40;58.50;;;;;;4939297;28;20508;-75
2022/07/09 00:13:15;;;;;;;2.22;2.00;;;21.40;58.60;;;;;;4941808;28;20123;-76
2022/07/09 00:15:42;;;;;;;4.55;2.15;;;21.30;58.50;;;;;;4943751;28;20457;-75
2022/07/09 00:18:08;;;;;;;2.63;2.40;;;21.30;58.50;;;;;;4926558;28;20408;-76
2022/07/09 00:20:35;;;;;;;2.33;1.90;;;21.30;58.70;;;;;;4927555;28;20105;-75
2022/07/09 00:23:01;;;;;;;6.75;2.90;;;21.20;58.50;;;;;;4942269;28;20043;-76
2022/07/09 00:25:27;;;;;;;1.88;1.65;;;21.20;58.60;;;;;;4920718;28;20038;-76
2022/07/09 00:27:53;;;;;;;3.10;2.15;;;21.10;58.40;;;;;;4925118;28;20393;-76
2022/07/09 00:30:19;;;;;;;2.10;1.90;;;21.10;58.50;;;;;;4923473;28;20409;-76
2022/07/09 00:32:45;;;;;;;3.28;2.17;;;21.10;58.60;;;;;;4942281;28;20105;-76
2022/07/09 00:35:11;;;;;;;3.47;1.80;;;21.00;58.50;;;;;;4942870;28;20043;-74
2022/07/09 00:37:37;;;;;;;6.97;2.95;;;20.90;58.40;;;;;;4953163;28;20138;-75
2022/07/09 00:40:03;;;;;;;2.05;1.85;;;20.90;58.50;;;;;;4940544;28;20035;-75
2022/07/09 00:42:29;;;;;;;2.40;1.73;;;20.90;58.60;;;;;;4943954;28;20370;-74
2022/07/09 00:44:55;;;;;;;2.03;1.83;;;20.80;58.50;;;;;;4939568;28;20042;-76
2022/07/09 00:47:21;;;;;;;2.42;2.05;;;20.80;58.50;;;;;;4941834;28;20039;-75
2022/07/09 00:49:48;;;;;;;3.00;2.10;;;20.80;58.60;;;;;;4956443;28;20114;-75
2022/07/09 00:52:14;;;;;;;2.95;2.55;;;20.70;58.40;;;;;;4924721;28;20061;-75
2022/07/09 00:54:41;;;;;;;2.22;1.80;;;20.70;58.50;;;;;;4944446;28;20023;-75
2022/07/09 00:57:09;;;;;;;1.95;1.75;;;20.60;58.40;;;;;;4941465;28;20023;-76
2022/07/09 00:59:37;;;;;;;2.60;1.80;;;20.60;58.50;;;;;;4941876;28;20043;-75
2022/07/09 01:02:03;;;;;;;1.83;1.50;;;20.60;58.50;;;;;;4939819;28;20043;-76
2022/07/09 01:04:29;;;;;;;1.65;1.55;;;20.60;58.60;;;;;;4939343;28;20117;-75
2022/07/09 01:06:57;;;;;;;1.95;1.35;;;20.50;58.40;;;;;;4942633;28;20174;-76
2022/07/09 01:09:25;;;;;;;2.50;1.70;;;20.50;58.50;;;;;;4939757;28;20043;-74
2022/07/09 01:11:51;;;;;;;1.63;1.48;;;20.40;58.40;;;;;;4939711;28;20500;-76
2022/07/09 01:14:17;;;;;;;1.83;1.70;;;20.40;58.40;;;;;;4939048;28;20097;-77
2022/07/09 01:16:43;;;;;;;1.60;1.50;;;20.40;58.50;;;;;;4908819;28;20058;-75
2022/07/09 01:19:09;;;;;;;2.10;1.70;;;20.30;58.40;;;;;;4940935;28;20043;-75
2022/07/09 01:21:35;;;;;;;2.00;1.80;;;20.30;58.50;;;;;;4942110;28;20038;-75
2022/07/09 01:24:02;;;;;;;2.17;1.67;;;20.30;58.50;;;;;;4937431;28;20043;-76
2022/07/09 01:26:28;;;;;;;2.15;1.63;;;20.20;58.40;;;;;;4937449;28;20058;-76
2022/07/09 01:28:54;;;;;;;1.90;1.80;;;20.20;58.50;;;;;;4940844;28;20039;-75
2022/07/09 01:31:20;;;;;;;1.60;1.50;;;20.10;58.40;;;;;;4943700;28;20050;-75
2022/07/09 01:33:46;;;;;;;1.50;1.40;;;20.10;58.50;;;;;;4941160;28;20027;-75
2022/07/09 01:36:12;;;;;;;1.42;1.33;;;20.00;58.40;;;;;;4941009;28;20069;-75
2022/07/09 01:38:38;;;;;;;2.92;1.65;;;20.00;58.50;;;;;;4953866;28;20059;-76
2022/07/09 01:41:04;;;;;;;3.35;1.95;;;20.00;58.50;;;;;;4950118;28;20441;-75
2022/07/09 01:43:33;;;;;;;1.70;1.60;;;20.00;58.60;;;;;;4941598;28;20054;-75
2022/07/09 01:46:00;;;;;;;1.90;1.80;;;19.90;58.50;;;;;;4945355;28;20031;-76
2022/07/09 01:48:27;;;;;;;2.25;2.05;;;19.80;58.40;;;;;;4949747;28;20087;-75
2022/07/09 01:50:53;;;;;;;2.35;1.70;;;19.80;58.50;;;;;;4948219;28;20032;-76
2022/07/09 01:53:20;;;;;;;1.88;1.67;;;19.80;58.50;;;;;;4948350;28;20035;-75
2022/07/09 01:55:46;;;;;;;2.03;1.92;;;19.70;58.40;;;;;;4948313;28;20035;-75
2022/07/09 01:58:12;;;;;;;3.13;1.88;;;19.70;58.50;;;;;;4929865;28;20047;-76
2022/07/09 02:00:38;;;;;;;2.30;1.70;;;19.70;58.60;;;;;;4949410;28;20063;-75
2022/07/09 02:03:04;;;;;;;2.00;1.63;;;19.60;58.40;;;;;;4958517;28;20035;-75
2022/07/09 02:05:30;;;;;;;2.25;1.60;;;19.60;58.50;;;;;;4961436;28;20066;-74
2022/07/09 02:07:55;;;;;;;3.22;1.70;;;19.60;58.60;;;;;;4965811;28;20101;-75
2022/07/09 02:10:22;;;;;;;2.05;1.73;;;19.50;58.50;;;;;;4969044;28;20035;-76
2022/07/09 02:12:47;;;;;;;1.80;1.50;;;19.50;58.50;;;;;;4953955;28;20031;-76
2022/07/09 02:15:13;;;;;;;2.28;1.48;;;19.40;58.40;;;;;;4968709;28;20124;-75
2022/07/09 02:17:39;;;;;;;2.05;1.85;;;19.40;58.50;;;;;;4954618;28;20026;-75
2022/07/09 02:20:06;;;;;;;2.53;1.70;;;19.40;58.50;;;;;;4937945;28;20391;-76
2022/07/09 02:22:32;;;;;;;1.55;1.45;;;19.30;58.40;;;;;;4951330;28;20023;-75
2022/07/09 02:24:58;;;;;;;1.95;1.40;;;19.30;58.50;;;;;;4946702;28;20035;-77
2022/07/09 02:27:24;;;;;;;1.92;1.70;;;19.30;58.60;;;;;;4933009;28;20042;-75
2022/07/09 02:29:50;;;;;;;1.75;1.65;;;19.20;58.50;;;;;;4953006;28;20493;-76
2022/07/09 02:32:16;;;;;;;2.05;1.65;;;19.20;58.50;;;;;;4948490;28;20086;-76
2022/07/09 02:34:42;;;;;;;1.75;1.50;;;19.20;59.20;;;;;;4947212;28;20420;-76
2022/07/09 02:37:08;;;;;;;1.98;1.77;;;19.10;58.40;;;;;;4946241;28;20111;-75
2022/07/09 02:39:34;;;;;;;1.73;1.52;;;19.10;58.50;;;;;;4946958;28;20497;-77
2022/07/09 02:42:00;;;;;;;1.70;1.60;;;19.10;58.60;;;;;;4948667;28;20078;-76
2022/07/09 02:44:26;;;;;;;1.90;1.60;;;19.00;58.40;;;;;;4944694;28;20035;-76
2022/07/09 02:46:52;;;;;;;1.42;1.30;;;19.00;58.50;;;;;;4947783;28;20114;-74
2022/07/09 02:49:18;;;;;;;1.55;1.45;;;18.90;58.40;;;;;;4946630;28;20130;-75
2022/07/09 02:51:44;;;;;;;4.03;1.63;;;18.90;58.50;;;;;;4929432;28;20028;-75
2022/07/09 02:54:10;;;;;;;1.70;1.60;;;18.90;58.60;;;;;;4947715;28;20023;-75
2022/07/09 02:56:36;;;;;;;1.58;1.48;;;18.80;58.50;;;;;;4947106;28;20033;-75
2022/07/09 02:59:02;;;;;;;1.30;1.20;;;18.80;58.50;;;;;;4941297;28;20031;-75
2022/07/09 03:01:29;;;;;;;2.00;1.55;;;18.70;58.40;;;;;;4930405;28;20031;-74
2022/07/09 03:03:55;;;;;;;1.58;1.48;;;18.70;58.50;;;;;;4947764;28;20039;-75
2022/07/09 03:06:21;;;;;;;2.05;1.75;;;18.70;58.50;;;;;;4946665;28;20095;-75
2022/07/09 03:08:46;;;;;;;2.03;1.83;;;18.70;58.70;;;;;;4947895;28;20066;-76
2022/07/09 03:11:12;;;;;;;1.35;1.25;;;18.60;58.50;;;;;;4948746;28;20027;-77
2022/07/09 03:13:38;;;;;;;1.55;1.45;;;18.60;58.60;;;;;;4946741;28;20545;-76
2022/07/09 03:16:06;;;;;;;1.42;1.33;;;18.60;58.60;;;;;;4930491;28;20174;-75
2022/07/09 03:18:32;;;;;;;1.65;1.40;;;18.50;59.10;;;;;;4949896;28;20116;-76
2022/07/09 03:20:58;;;;;;;2.28;1.60;;;18.50;58.60;;;;;;4944131;28;20031;-75
2022/07/09 03:23:23;;;;;;;2.40;1.55;;;18.50;58.60;;;;;;4949537;28;20035;-74
2022/07/09 03:25:49;;;;;;;1.63;1.52;;;18.40;58.50;;;;;;4945898;28;20035;-76
2022/07/09 03:28:17;;;;;;;3.08;1.48;;;18.40;58.50;;;;;;4948097;28;20180;-76
2022/07/09 03:30:43;;;;;;;2.13;1.50;;;18.40;58.60;;;;;;4946742;28;20039;-74
2022/07/09 03:33:09;;;;;;;1.38;1.27;;;18.30;58.50;;;;;;4947596;28;20094;-75
2022/07/09 03:35:35;;;;;;;1.65;1.55;;;18.30;58.60;;;;;;4946125;28;20512;-76
2022/07/09 03:38:01;;;;;;;1.55;1.45;;;18.30;58.60;;;;;;4943734;28;20068;-75
2022/07/09 03:40:27;;;;;;;4.43;1.73;;;18.30;58.70;;;;;;4946000;28;20058;-75
2022/07/09 03:42:53;;;;;;;1.50;1.40;;;18.20;58.60;;;;;;4931389;28;20125;-75
2022/07/09 03:45:19;;;;;;;2.50;1.67;;;18.20;58.70;;;;;;4947349;28;20119;-76
2022/07/09 03:47:48;;;;;;;1.63;1.30;;;18.10;58.60;;;;;;4944798;28;20038;-76
2022/07/09 03:50:14;;;;;;;2.35;1.60;;;18.10;58.60;;;;;;4946442;28;20045;-75
2022/07/09 03:52:40;;;;;;;1.70;1.60;;;18.10;58.70;;;;;;4947913;28;20496;-75
2022/07/09 03:55:06;;;;;;;1.77;1.42;;;18.00;58.60;;;;;;4945040;28;20054;-76
2022/07/09 03:57:32;;;;;;;2.15;1.30;;;18.00;58.60;;;;;;4945928;28;20027;-76
2022/07/09 03:59:58;;;;;;;1.60;1.50;;;18.00;58.70;;;;;;4946722;28;20714;-74
2022/07/09 04:02:24;;;;;;;1.50;1.40;;;18.00;58.80;;;;;;4946227;28;20067;-76
2022/07/09 04:04:50;;;;;;;1.60;1.50;;;17.90;58.70;;;;;;4944313;28;20037;-76
2022/07/09 04:07:16;;;;;;;2.60;1.73;;;17.90;58.70;;;;;;4946508;28;20163;-76
2022/07/09 04:09:42;;;;;;;1.70;1.60;;;17.90;58.70;;;;;;4945200;28;20126;-76
2022/07/09 04:12:08;;;;;;;1.85;1.70;;;17.80;58.60;;;;;;4942783;28;20300;-76
2022/07/09 04:14:34;;;;;;;2.05;1.35;;;17.80;58.70;;;;;;4944375;28;20066;-75
2022/07/09 04:17:00;;;;;;;1.60;1.50;;;17.80;58.70;;;;;;4945738;28;20575;-76
2022/07/09 04:19:26;;;;;;;1.65;1.52;;;17.80;58.70;;;;;;4959695;28;20117;-77
2022/07/09 04:21:52;;;;;;;1.42;1.33;;;17.80;58.90;;;;;;4943060;28;20050;-75
2022/07/09 04:24:18;;;;;;;2.47;1.95;;;17.70;58.60;;;;;;4945312;28;20031;-75
2022/07/09 04:26:44;;;;;;;1.67;1.17;;;17.70;58.70;;;;;;4944991;28;20118;-76
2022/07/09 04:29:10;;;;;;;3.17;1.30;;;17.70;58.70;;;;;;4945167;28;20031;-76
2022/07/09 04:31:36;;;;;;;2.63;1.58;;;17.70;58.70;;;;;;4946501;28;20031;-75
2022/07/09 04:34:02;;;;;;;1.75;1.40;;;17.70;58.80;;;;;;4952303;28;20113;-75
2022/07/09 04:36:29;;;;;;;1.48;1.38;;;17.60;58.60;;;;;;4939950;28;20078;-75
2022/07/09 04:38:56;;;;;;;1.83;1.73;;;17.60;58.70;;;;;;4947098;28;20604;-76
2022/07/09 04:41:22;;;;;;;1.50;1.40;;;17.60;58.70;;;;;;4947137;28;20830;-75
2022/07/09 04:43:48;;;;;;;1.83;1.65;;;17.60;58.70;;;;;;4941771;28;20027;-76
2022/07/09 04:46:16;;;;;;;1.80;1.70;;;17.60;58.70;;;;;;4946143;28;20536;-75
2022/07/09 04:48:42;;;;;;;1.83;1.50;;;17.60;58.70;;;;;;4939325;28;20145;-75
2022/07/09 04:51:08;;;;;;;3.60;1.33;;;17.50;58.60;;;;;;4941254;28;20110;-76
2022/07/09 04:53:34;;;;;;;1.88;1.65;;;17.50;58.60;;;;;;4940022;28;20578;-76
2022/07/09 04:56:00;;;;;;;2.28;1.40;;;17.60;58.80;;;;;;4940934;28;20114;-75
2022/07/09 04:58:26;;;;;;;1.58;1.40;;;17.50;58.60;;;;;;4943231;28;20031;-75
2022/07/09 05:00:51;;;;;;;1.33;1.23;;;17.60;58.80;;;;;;4941973;28;20043;-76
2022/07/09 05:03:17;;;;;;;2.28;1.17;;;17.50;58.70;;;;;;4943639;28;20353;-75
2022/07/09 05:05:43;;;;;;;1.45;1.15;;;17.60;58.80;;;;;;4940282;28;20027;-76
2022/07/09 05:08:09;;;;;;;2.00;1.50;;;17.60;58.80;;;;;;4937738;28;20027;-76
2022/07/09 05:10:35;;;;;;;1.30;1.20;;;17.60;58.70;;;;;;4939433;28;20019;-75
2022/07/09 05:13:01;;;;;;;1.90;1.80;;;17.60;58.70;;;;;;4941182;28;20559;-76
2022/07/09 05:15:30;;;;;;;2.20;1.70;;;17.60;58.70;;;;;;4940219;28;20027;-75
2022/07/09 05:17:56;;;;;;;2.47;1.13;;;17.70;58.90;;;;;;4940331;28;20030;-75
2022/07/09 05:20:22;;;;;;;1.40;1.30;;;17.70;58.80;;;;;;4941741;28;20536;-76
2022/07/09 05:22:48;;;;;;;1.80;1.25;;;17.80;58.90;;;;;;4940261;28;20121;-77
2022/07/09 05:25:14;;;;;;;1.40;1.30;;;17.80;58.80;;;;;;4941281;28;20035;-76
2022/07/09 05:27:42;;;;;;;1.33;1.23;;;17.90;58.90;;;;;;4942382;28;20392;-76
2022/07/09 05:30:09;;;;;;;1.60;1.30;;;18.00;59.00;;;;;;4940997;28;20045;-76
2022/07/09 05:32:35;;;;;;;2.30;1.20;;;18.00;58.80;;;;;;4939622;28;20279;-76
2022/07/09 05:35:01;;;;;;;2.35;1.38;;;18.10;58.80;;;;;;4945089;28;20239;-75
2022/07/09 05:37:27;;;;;;;2.63;1.40;;;18.20;58.90;;;;;;4939525;28;20054;-76
2022/07/09 05:39:56;;;;;;;2.97;1.77;;;18.30;59.00;;;;;;4940316;28;20072;-76
2022/07/09 05:42:22;;;;;;;2.17;1.30;;;18.30;58.90;;;;;;4942218;28;20917;-76
2022/07/09 05:44:48;;;;;;;2.40;1.48;;;18.30;58.80;;;;;;4922401;28;20452;-76
2022/07/09 05:47:15;;;;;;;1.65;1.40;;;18.40;59.00;;;;;;4939604;28;20082;-75
2022/07/09 05:49:41;;;;;;;1.92;1.63;;;18.40;58.90;;;;;;4941167;28;20164;-76
2022/07/09 05:52:07;;;;;;;3.17;1.63;;;18.40;59.40;;;;;;4938171;28;20039;-76
2022/07/09 05:54:34;;;;;;;2.05;1.70;;;18.60;59.10;;;;;;4940792;28;20032;-76
2022/07/09 05:56:59;;;;;;;1.50;1.40;;;18.70;59.20;;;;;;4924569;28;20039;-76
2022/07/09 05:59:25;;;;;;;2.50;1.70;;;18.90;59.90;;;;;;4942492;28;20066;-76
2022/07/09 06:01:51;;;;;;;2.50;1.60;;;19.10;59.30;;;;;;4938055;28;20086;-76
2022/07/09 06:04:17;;;;;;;1.30;1.20;;;19.40;59.50;;;;;;4941649;28;20031;-76
2022/07/09 06:06:43;;;;;;;3.38;1.38;;;19.70;59.60;;;;;;4941764;28;20397;-74
2022/07/09 06:09:09;;;;;;;1.52;1.25;;;19.90;59.50;;;;;;4940805;28;20023;-76
2022/07/09 06:11:35;;;;;;;1.70;1.10;;;20.20;59.50;;;;;;4937820;28;20134;-75
2022/07/09 06:14:01;;;;;;;3.63;1.50;;;20.50;59.60;;;;;;4938447;28;20499;-76
2022/07/09 06:16:27;;;;;;;2.03;1.27;;;20.80;59.80;;;;;;4942641;28;20283;-76
2022/07/09 06:18:53;;;;;;;2.95;1.85;;;21.10;59.90;;;;;;4941441;28;20035;-76
2022/07/09 06:21:19;;;;;;;1.77;1.50;;;21.40;60.00;;;;;;4936849;28;20031;-75
2022/07/09 06:23:45;;;;;;;1.73;1.42;;;21.70;60.10;;;;;;4942907;28;20117;-76
2022/07/09 06:26:11;;;;;;;1.52;1.20;;;22.10;60.10;;;;;;4941243;28;20046;-76
2022/07/09 06:28:37;;;;;;;2.00;1.52;;;22.50;60.10;;;;;;4942663;28;20529;-75
2022/07/09 06:31:04;;;;;;;2.03;1.30;;;23.00;59.90;;;;;;4946297;28;20071;-76
2022/07/09 06:33:30;;;;;;;2.75;1.38;;;23.60;59.60;;;;;;4936303;28;20042;-75
2022/07/09 06:35:56;;;;;;;1.77;1.42;;;24.20;59.40;;;;;;4960383;28;20035;-75
2022/07/09 06:38:21;;;;;;;1.45;1.15;;;24.70;59.00;;;;;;4964121;28;20084;-74
2022/07/09 06:40:47;;;;;;;2.15;1.38;;;25.20;58.50;;;;;;4958974;28;20059;-76
2022/07/09 06:43:14;;;;;;;3.05;1.60;;;25.60;57.90;;;;;;4965613;28;20387;-77
2022/07/09 06:45:45;;;;;;;2.35;1.27;;;26.00;57.10;;;;;;4948720;28;20059;-75
2022/07/09 06:48:12;;;;;;;1.70;1.35;;;26.10;56.70;;;;;;4964347;28;20098;-77
2022/07/09 06:50:38;;;;;;;1.50;1.40;;;26.00;56.70;;;;;;4965202;28;20042;-75
2022/07/09 06:53:04;;;;;;;1.33;1.00;;;25.80;56.80;;;;;;4964781;28;20028;-76
2022/07/09 06:55:30;;;;;;;1.75;1.20;;;25.60;57.10;;;;;;4962097;28;20104;-78
2022/07/09 06:57:57;;;;;;;2.28;1.33;;;25.40;57.80;;;;;;4949993;28;20031;-79
2022/07/09 07:00:23;;;;;;;1.10;1.00;;;25.20;57.70;;;;;;4961606;28;20076;-78
2022/07/09 07:02:50;;;;;;;1.40;1.30;;;25.10;57.80;;;;;;4947537;28;20031;-77
2022/07/09 07:05:16;;;;;;;2.42;1.67;;;25.00;58.00;;;;;;4946998;28;20175;-82
2022/07/09 07:07:43;;;;;;;1.50;1.40;;;24.90;57.90;;;;;;4929539;28;20031;-77
2022/07/09 07:10:10;;;;;;;2.53;1.50;;;24.90;57.90;;;;;;4942712;28;20043;-78
2022/07/09 07:12:36;;;;;;;1.73;1.48;;;24.80;57.80;;;;;;4946079;28;20027;-77
2022/07/09 07:15:04;;;;;;;1.73;1.20;;;24.90;58.20;;;;;;4944383;28;20043;-77
2022/07/09 07:17:32;;;;;;;1.85;1.63;;;25.30;57.80;;;;;;4947320;28;20023;-77
2022/07/09 07:20:00;;;;;;;1.95;1.55;;;26.00;56.90;;;;;;4946414;28;20045;-78
2022/07/09 07:22:27;;;;;;;1.67;1.17;;;26.70;55.90;;;;;;4946033;28;20409;-78
2022/07/09 07:24:53;;;;;;;1.48;1.27;;;27.40;54.80;;;;;;4945086;28;20069;-78
2022/07/09 07:27:18;;;;;;;2.08;1.60;;;28.10;53.80;;;;;;4944041;28;20120;-78
2022/07/09 07:29:46;;;;;;;4.13;1.45;;;28.50;52.80;;;;;;4944793;28;20291;-77
2022/07/09 07:32:11;;;;;;;2.17;1.60;;;28.70;52.40;;;;;;4945432;28;20062;-75
2022/07/09 07:34:37;;;;;;;3.35;1.73;;;28.70;52.30;;;;;;4943715;28;20035;-76
2022/07/09 07:37:03;;;;;;;3.67;1.80;;;28.60;52.20;;;;;;4942527;28;20034;-75
2022/07/09 07:39:29;;;;;;;3.58;1.65;;;28.60;52.10;;;;;;4943133;28;20154;-76
2022/07/09 07:41:55;;;;;;;2.08;1.50;;;28.70;51.70;;;;;;4945819;28;20094;-76
2022/07/09 07:44:22;;;;;;;2.08;1.40;;;28.90;50.80;;;;;;4956719;28;20137;-78
2022/07/09 07:46:48;;;;;;;6.43;1.45;;;29.30;50.00;;;;;;4942919;28;20027;-77
2022/07/09 07:49:14;;;;;;;2.28;1.30;;;29.70;49.20;;;;;;4943693;28;20027;-76
2022/07/09 07:51:42;;;;;;;1.55;1.30;;;30.00;48.30;;;;;;4940668;28;20023;-77
2022/07/09 07:54:10;;;;;;;2.53;1.35;;;30.40;47.40;;;;;;4942817;28;20031;-76
2022/07/09 07:56:38;;;;;;;2.55;1.10;;;30.70;46.60;;;;;;4944799;28;20059;-77
2022/07/09 07:59:04;;;;;;;1.52;1.05;;;31.10;46.10;;;;;;4943570;28;20035;-75
2022/07/09 08:01:31;;;;;;;3.30;1.65;;;31.30;45.50;;;;;;4946195;28;20035;-76
2022/07/09 08:03:57;;;;;;;2.75;1.20;;;31.60;45.00;;;;;;4926883;28;20023;-76
2022/07/09 08:06:23;;;;;;;2.65;1.38;;;31.70;44.80;;;;;;4922946;29;20054;-78
2022/07/09 08:08:50;;;;;;;4.40;1.38;;;31.60;44.70;;;;;;4926426;28;20339;-79
2022/07/09 08:11:16;;;;;;;1.77;1.25;;;31.30;45.00;;;;;;4929890;28;20071;-77
2022/07/09 08:13:42;;;;;;;1.75;1.40;;;30.90;45.60;;;;;;4940521;28;20023;-77
2022/07/09 08:16:08;;;;;;;3.97;1.67;;;30.30;46.30;;;;;;4908774;28;20036;-77
2022/07/09 08:18:35;;;;;;;1.15;1.02;;;29.80;47.00;;;;;;4958218;28;20027;-77
2022/07/09 08:21:02;;;;;;;2.65;1.45;;;29.40;47.60;;;;;;4942871;28;20031;-79
2022/07/09 08:23:28;;;;;;;1.60;1.30;;;29.10;47.90;;;;;;4945800;28;20495;-78
2022/07/09 08:25:54;;;;;;;1.95;1.48;;;29.00;48.30;;;;;;4940995;28;20142;-76
2022/07/09 08:28:20;;;;;;;2.65;0.98;;;28.80;48.50;;;;;;4908284;28;20050;-76
2022/07/09 08:30:46;;;;;;;1.33;1.15;;;28.70;48.60;;;;;;4923922;28;20047;-79
2022/07/09 08:33:12;;;;;;;1.48;0.90;;;28.60;48.50;;;;;;4926643;29;20069;-77
2022/07/09 08:35:37;;;;;;;1.13;0.90;;;28.50;48.50;;;;;;4939282;28;20100;-76
2022/07/09 08:38:03;;;;;;;2.13;1.00;;;28.40;48.40;;;;;;4941003;28;20478;-77
2022/07/09 08:40:30;;;;;;;1.02;0.93;;;28.40;48.30;;;;;;4942126;28;20043;-76
2022/07/09 08:43:00;;;;;;;0.88;0.88;;;28.30;48.20;;;;;;4943708;28;20038;-77
2022/07/09 08:45:29;;;;;;;2.33;0.80;;;28.40;48.10;;;;;;4941434;28;20027;-78
2022/07/09 08:47:56;;;;;;;1.65;0.93;;;28.50;47.90;;;;;;4942177;28;20093;-76
2022/07/09 08:50:23;;;;;;;1.20;0.88;;;28.50;47.80;;;;;;4922709;28;20031;-76
2022/07/09 08:52:51;;;;;;;0.95;0.73;;;28.50;47.80;;;;;;4940323;28;20453;-75
2022/07/09 08:55:17;;;;;;;3.28;1.23;;;28.50;47.80;;;;;;4928733;28;20047;-75
2022/07/09 08:57:43;;;;;;;1.13;1.02;;;28.40;47.70;;;;;;4923643;28;20031;-76
2022/07/09 09:00:10;;;;;;;1.17;0.98;;;28.30;47.90;;;;;;4941638;28;20050;-77
2022/07/09 09:02:37;;;;;;;1.08;1.00;;;28.10;48.20;;;;;;4943288;28;20653;-77
2022/07/09 09:05:13;;;;;;;2.50;1.00;;;27.90;48.40;;;;;;4940314;28;20031;-76
2022/07/09 09:07:39;;;;;;;0.80;0.80;;;27.80;48.50;;;;;;4944944;28;20042;-76
2022/07/09 09:10:05;;;;;;;2.22;0.90;;;27.80;48.80;;;;;;4923578;28;20043;-75
2022/07/09 09:12:31;;;;;;;2.40;1.27;;;27.70;48.90;;;;;;4940457;28;20475;-76
2022/07/09 09:15:04;;;;;;;0.70;0.70;;;27.60;48.90;;;;;;4922974;28;20271;-75
2022/07/09 09:17:30;;;;;;;;;;;27.60;49.00;;;;;;4939487;28;20545;-75
2022/07/09 09:19:56;;;;;;;1.85;0.95;;;27.60;49.10;;;;;;4940799;28;19977;-76
2022/07/09 09:22:22;;;;;;;2.35;0.70;;;27.70;49.10;;;;;;4943473;28;20039;-76
2022/07/09 09:24:53;;;;;;;1.05;0.90;;;27.80;48.90;;;;;;4923502;28;20054;-79
2022/07/09 09:27:28;;;;;;;1.48;0.77;;;27.80;48.70;;;;;;4939831;28;20610;-77
2022/07/09 09:29:57;;;;;;;0.73;0.73;;;27.80;48.60;;;;;;4941559;28;20599;-76
2022/07/09 09:32:24;;;;;;;0.98;0.80;;;27.70;48.60;;;;;;4940863;28;20469;-79
2022/07/09 09:34:51;;;;;;;1.08;0.60;;;27.60;48.60;;;;;;4945293;28;20489;-77
2022/07/09 09:37:27;;;;;;;0.88;0.73;;;27.60;48.60;;;;;;4941944;28;20075;-77
2022/07/09 09:39:53;;;;;;;1.38;0.70;;;27.50;48.50;;;;;;4942922;28;20945;-80
2022/07/09 09:42:21;;;;;;;0.98;0.90;;;27.40;48.60;;;;;;4947461;28;20028;-80
2022/07/09 09:44:49;;;;;;;0.88;0.63;;;27.40;48.70;;;;;;4942405;28;20031;-78
2022/07/09 09:47:20;;;;;;;0.55;0.50;;;27.40;48.80;;;;;;4942276;28;20031;-79
2022/07/09 09:49:47;;;;;;;0.77;0.77;;;27.30;48.80;;;;;;4941420;28;20043;-76
2022/07/09 09:52:14;;;;;;;0.68;0.68;;;27.20;48.90;;;;;;4940275;28;20035;-75
2022/07/09 09:54:42;;;;;;;1.30;0.95;;;27.20;49.00;;;;;;4924808;28;20078;-75
2022/07/09 09:57:10;;;;;;;1.80;0.70;;;27.20;49.00;;;;;;4924825;28;20401;-76
2022/07/09 09:59:44;;;;;;;0.88;0.88;;;27.40;48.90;;;;;;4940599;28;20044;-75
2022/07/09 10:02:11;;;;;;;0.80;0.80;;;27.60;49.20;;;;;;4943209;28;20069;-79
2022/07/09 10:04:42;;;;;;;2.42;0.70;;;27.70;48.40;;;;;;4928582;28;20405;-77
2022/07/09 10:07:12;;;;;;;0.55;0.50;;;27.70;48.40;;;;;;4942266;28;20515;-77
2022/07/09 10:09:38;;;;;;;0.90;0.80;;;27.70;48.20;;;;;;4941483;28;20485;-77
2022/07/09 10:12:05;;;;;;;1.02;0.70;;;27.80;48.10;;;;;;4926141;28;20031;-77
2022/07/09 10:14:33;;;;;;;1.55;1.08;;;28.10;47.80;;;;;;4943144;28;20031;-77
2022/07/09 10:17:14;;;;;;;2.05;1.00;;;28.30;47.60;;;;;;4948013;28;20125;-77
2022/07/09 10:20:05;;;;;;;2.80;1.08;;;28.30;47.40;;;;;;4926736;28;20109;-77
2022/07/09 10:22:36;;;;;;;1.13;1.00;;;28.30;47.50;;;;;;4924450;28;20051;-77
2022/07/09 10:25:02;;;;;;;1.00;0.93;;;28.30;48.30;;;;;;4942472;28;20089;-76
2022/07/09 10:27:28;;;;;;;0.73;0.73;;;28.50;47.40;;;;;;4949342;28;20038;-77
2022/07/09 10:29:56;;;;;;;1.58;0.90;;;28.50;47.10;;;;;;4948601;28;20035;-76
2022/07/09 10:32:30;;;;;;;1.08;1.08;;;28.50;47.10;;;;;;4944072;28;20043;-77
2022/07/09 10:35:00;;;;;;;0.70;0.70;;;28.50;46.80;;;;;;4945184;28;20395;-77
2022/07/09 10:37:42;;;;;;;1.63;1.35;;;28.80;46.70;;;;;;4931951;28;20078;-77
2022/07/09 10:40:10;;;;;;;1.98;0.85;;;28.80;46.30;;;;;;4932008;29;20420;-77
2022/07/09 10:42:37;;;;;;;2.17;1.42;;;28.70;46.30;;;;;;4944642;29;20031;-77
2022/07/09 10:45:14;;;;;;;1.20;0.63;;;28.60;46.60;;;;;;4936941;28;20098;-79
2022/07/09 10:47:40;;;;;;;0.77;0.73;;;28.50;46.70;;;;;;4950871;28;20040;-77
2022/07/09 10:50:07;;;;;;;1.05;0.82;;;28.30;46.80;;;;;;4946257;28;20129;-76
2022/07/09 10:52:34;;;;;;;0.98;0.85;;;28.20;47.10;;;;;;4954052;28;21026;-74
2022/07/09 10:55:00;;;;;;;1.42;1.10;;;27.90;47.80;;;;;;4943793;29;20053;-75
2022/07/09 10:57:26;;;;;;;0.70;0.70;;;27.80;47.40;;;;;;4948156;28;20497;-76
2022/07/09 10:59:52;;;;;;;1.05;0.88;;;27.90;47.30;;;;;;4949900;28;20204;-77
2022/07/09 11:02:22;;;;;;;1.08;0.70;;;28.20;46.90;;;;;;4957821;28;20136;-79
2022/07/09 11:04:50;;;;;;;0.80;0.60;;;28.30;46.60;;;;;;4945766;28;20303;-78
2022/07/09 11:07:23;;;;;;;0.93;0.73;;;28.40;46.50;;;;;;4945344;29;20075;-78
2022/07/09 11:09:49;;;;;;;;;;;28.60;46.10;;;;;;4944474;28;20047;-78
2022/07/09 11:12:17;;;;;;;1.23;0.70;;;28.80;46.00;;;;;;4939782;28;19914;-78
2022/07/09 11:14:47;;;;;;;1.10;1.00;;;28.90;45.80;;;;;;4931035;28;20377;-78
2022/07/09 11:17:17;;;;;;;0.77;0.73;;;29.10;45.30;;;;;;4948350;29;20520;-79
2022/07/09 11:19:44;;;;;;;0.55;0.55;;;29.30;44.90;;;;;;4947421;28;20423;-79
2022/07/09 11:22:10;;;;;;;0.80;0.73;;;29.60;44.50;;;;;;4946175;29;20023;-78
2022/07/09 11:24:37;;;;;;;0.70;0.70;;;29.80;44.10;;;;;;4947616;29;20063;-78
2022/07/09 11:27:07;;;;;;;1.20;1.10;;;30.00;43.70;;;;;;4948377;28;20027;-75
2022/07/09 11:29:34;;;;;;;2.70;0.73;;;30.20;43.30;;;;;;4941790;28;20031;-79
2022/07/09 11:32:04;;;;;;;0.82;0.82;;;30.50;43.10;;;;;;4951622;29;20069;-81
2022/07/09 11:34:30;;;;;;;0.70;0.65;;;30.70;42.80;;;;;;4966279;28;20055;-82
2022/07/09 11:36:58;;;;;;;1.10;0.80;;;30.80;42.40;;;;;;4946554;28;20061;-81
2022/07/09 11:39:29;;;;;;;1.88;0.73;;;30.70;42.30;;;;;;4950036;28;20307;-78
2022/07/09 11:41:58;;;;;;;1.63;1.10;;;30.40;42.70;;;;;;4938007;28;20035;-78
2022/07/09 11:44:33;;;;;;;1.00;0.90;;;30.10;43.10;;;;;;4938858;29;20039;-78
2022/07/09 11:47:06;;;;;;;1.15;0.70;;;30.20;43.20;;;;;;4939906;29;20560;-78
2022/07/09 11:49:37;;;;;;;4.30;0.77;;;30.30;42.90;;;;;;4949124;28;20456;-79
2022/07/09 11:52:04;;;;;;;1.15;0.95;;;30.60;42.70;;;;;;4949787;28;20358;-79
2022/07/09 11:54:31;;;;;;;1.90;0.77;;;30.90;42.40;;;;;;4947349;28;20043;-79
2022/07/09 11:56:57;;;;;;;1.52;1.15;;;31.10;41.90;;;;;;4939634;29;20054;-77
2022/07/09 11:59:30;;;;;;;0.73;0.73;;;31.30;41.60;;;;;;4946753;28;20398;-80
2022/07/09 12:01:59;;;;;;;1.38;0.90;;;31.30;41.30;;;;;;4950782;28;20303;-83
2022/07/09 12:04:30;;;;;;;1.50;1.10;;;31.20;41.50;;;;;;4941508;28;20041;-80
2022/07/09 12:06:57;;;;;;;2.35;1.05;;;31.20;41.60;;;;;;4942855;28;20043;-79
2022/07/09 12:09:31;;;;;;;0.70;0.60;;;31.10;41.70;;;;;;4929496;29;20161;-78
2022/07/09 12:11:58;;;;;;;1.60;0.80;;;31.20;41.70;;;;;;4930339;28;20040;-77
2022/07/09 12:14:24;;;;;;;1.27;0.82;;;31.20;41.70;;;;;;4941584;28;20031;-77
2022/07/09 12:16:50;;;;;;;2.08;1.10;;;31.10;41.70;;;;;;4946858;28;20473;-77
2022/07/09 12:19:16;;;;;;;1.05;0.80;;;31.00;41.80;;;;;;4948069;28;20121;-77
2022/07/09 12:21:42;;;;;;;0.98;0.60;;;31.00;41.70;;;;;;4912904;28;20559;-79
2022/07/09 12:24:07;;;;;;;1.80;0.88;;;30.90;41.60;;;;;;4944096;28;20039;-80
2022/07/09 12:26:33;;;;;;;2.15;1.65;;;30.90;41.70;;;;;;4935299;28;20026;-78
2022/07/09 12:28:59;;;;;;;2.60;1.15;;;31.00;41.90;;;;;;4933368;28;20067;-78
2022/07/09 12:31:25;;;;;;;1.17;1.00;;;31.10;41.90;;;;;;4946611;28;20118;-78
2022/07/09 12:33:51;;;;;;;1.23;1.00;;;31.20;41.90;;;;;;4925310;28;20043;-79
2022/07/09 12:36:17;;;;;;;1.60;0.80;;;31.40;41.80;;;;;;4948866;29;20035;-83
2022/07/09 12:38:43;;;;;;;1.00;0.90;;;31.50;41.60;;;;;;4947898;28;20047;-77
2022/07/09 12:41:09;;;;;;;1.13;0.80;;;31.70;41.50;;;;;;4949310;28;20098;-77
2022/07/09 12:43:35;;;;;;;2.65;1.67;;;31.90;41.30;;;;;;4942520;28;20032;-80
2022/07/09 12:46:01;;;;;;;1.35;0.90;;;32.00;41.00;;;;;;4945838;28;20038;-78